Portada
METAR-TAF:

METAR-TAF

Aeropuertos :

Aeropuerto Internacional Hato

Curazao, Antillas Neerlandesas

latitud: 12-12N, longitud: 068-58W, altitud: 9 m

Observación

El informe se hizo hace 24 minutos, a las 13:00 UTC
Viento 14 kt del sureste, variando entre este y sur-sureste
Temperatura 28°C
Humedad 66%
Presión 1016 hPa
Visibilidad 10 km o más
Nubes dispersas a una altura de 2800 ft

METAR: TNCC 101300Z AUTO 13014KT 090V150 9999 SCT028 28/21 Q1016 NOSIG

Hora: 09:24 (13:24 UTC)

Pronóstico

El informe se hizo hace 3 horas y 39 minutos, a las 09:45 UTC
Pronóstico válido del 10 a las 12 UTC al 11 a las 12 UTC
Viento 15 kt del este con ráfagas de 25 kt
Visibilidad 10 km o más
Nubes dispersas a una altura de 2300 ft
Probabilidad 30% :
Temporalmente
del 11 a las 02 UTC al 11 a las 12 UTC
Cielo nuboso a una altura de 1500 ft
Cielo nuboso a una altura de 4000 ft

TAF: TNCC 100945Z 1012/1112 10015G25KT 9999 SCT023 PROB30 TEMPO 1102/1112 BKN015 BKN040

Observaciones y pronósticos meteorológicos de más de 4000 aeropuertos (mensajes METAR y TAF).

Los puntos amarillos y rojos representan las estaciones disponibles.

Ponga el ratón en el punto deseado para ver el nombre de la estación.

Haga clic para ver las observaciones y los pronósticos meteorológicos.

Para cambiar el mapa : haga clic en los botones verdes con una cruz de color negro para hacer un zoom, en el botón verde con un guión para alejar o en las flechas verdes para mapas adyacentes.


METAR-TAF: